Time,TemperatureF,DewpointF,PressureIn,WindDirection,WindDirectionDegrees,WindSpeedMPH,WindSpeedGustMPH,Humidity,HourlyPrecipIn,Conditions,Clouds,dailyrainin,SolarRadiationWatts/m^2,SoftwareType,DateUTC
2013-01-16 00:00:00,29.2,28.7,30.69,ENE,78,0.0,1.0,98,0.00,,---,0.00,0.00,VWS V14.01,2013-01-16 08:00:00,
2013-01-16 00:03:00,28.9,28.4,30.69,ENE,78,0.0,1.0,98,0.00,,---,0.00,0.00,VWS V14.01,2013-01-16 08:03:00,
2013-01-16 00:05:00,28.9,28.4,30.69,ENE,78,0.0,1.0,98,0.00,,---,0.00,0.00,VWS V14.01,2013-01-16 08:05:00,
2013-01-16 00:08:00,28.8,28.3,30.69,ENE,78,1.0,1.0,98,0.00,,---,0.00,0.00,VWS V14.01,2013-01-16 08:08:00,
2013-01-16 00:10:00,28.8,28.3,30.69,ENE,78,1.0,1.0,98,0.00,,---,0.00,0.00,VWS V14.01,2013-01-16 08:10:00,
2013-01-16 00:13:00,28.9,28.4,30.69,East,92,1.0,3.0,98,0.00,,---,0.00,0.00,VWS V14.01,2013-01-16 08:13:00,
2013-01-16 00:15:00,28.9,28.4,30.69,East,92,1.0,3.0,98,0.00,,---,0.00,0.00,VWS V14.01,2013-01-16 08:15:00,
2013-01-16 00:18:00,29.0,28.5,30.69,East,92,0.0,0.0,98,0.00,,---,0.00,0.00,VWS V14.01,2013-01-16 08:18:00,
2013-01-16 00:20:00,28.9,28.4,30.69,East,92,0.0,2.0,98,0.00,,---,0.00,0.00,VWS V14.01,2013-01-16 08:20:00,
2013-01-16 00:23:00,28.8,28.3,30.69,East,88,0.0,0.0,98,0.00,,---,0.00,0.00,VWS V14.01,2013-01-16 08:23:00,
2013-01-16 00:25:00,28.8,28.3,30.69,East,89,0.0,1.0,98,0.00,,---,0.00,0.00,VWS V14.01,2013-01-16 08:25:00,
2013-01-16 00:28:00,28.7,28.2,30.69,East,91,0.0,0.0,98,0.00,,---,0.00,0.00,VWS V14.01,2013-01-16 08:28:00,
2013-01-16 00:30:00,28.7,28.2,30.69,East,92,0.0,1.0,98,0.00,,---,0.00,0.00,VWS V14.01,2013-01-16 08:30:00,
2013-01-16 00:33:00,28.9,28.4,30.69,ENE,69,1.0,2.0,98,0.00,,---,0.00,0.00,VWS V14.01,2013-01-16 08:33:00,
2013-01-16 00:35:00,28.9,28.4,30.69,ENE,69,2.0,3.0,98,0.00,,---,0.00,0.00,VWS V14.01,2013-01-16 08:35:00,
2013-01-16 00:38:00,28.8,28.3,30.69,ENE,59,0.0,0.0,98,0.00,,---,0.00,0.00,VWS V14.01,2013-01-16 08:38:00,
2013-01-16 00:40:00,28.8,28.3,30.69,ENE,59,0.0,2.0,98,0.00,,---,0.00,0.00,VWS V14.01,2013-01-16 08:40:00,
2013-01-16 00:43:00,28.6,28.1,30.69,ENE,59,0.0,0.0,98,0.00,,---,0.00,0.00,VWS V14.01,2013-01-16 08:43:00,
2013-01-16 00:45:00,28.6,28.1,30.69,ENE,58,0.0,1.0,98,0.00,,---,0.00,0.00,VWS V14.01,2013-01-16 08:45:00,
2013-01-16 00:48:00,28.7,28.2,30.69,ENE,59,0.0,0.0,98,0.00,,---,0.00,0.00,VWS V14.01,2013-01-16 08:48:00,
2013-01-16 00:50:00,28.7,28.2,30.69,ENE,59,0.0,0.0,98,0.00,,---,0.00,0.00,VWS V14.01,2013-01-16 08:50:00,
2013-01-16 00:53:00,28.9,28.4,30.69,ENE,59,0.0,0.0,98,0.00,,---,0.00,0.00,VWS V14.01,2013-01-16 08:53:00,
2013-01-16 00:55:00,28.9,28.4,30.69,ENE,59,0.0,1.0,98,0.00,,---,0.00,0.00,VWS V14.01,2013-01-16 08:55:00,
2013-01-16 00:58:00,29.1,28.6,30.69,ENE,78,0.0,2.0,98,0.00,,---,0.00,0.00,VWS V14.01,2013-01-16 08:58:00,
2013-01-16 01:00:00,29.0,28.5,30.70,ENE,74,0.0,1.0,98,0.00,,---,0.00,0.00,VWS V14.01,2013-01-16 09:00:00,
2013-01-16 01:03:00,29.2,28.7,30.70,East,82,0.0,0.0,98,0.00,,---,0.00,0.00,VWS V14.01,2013-01-16 09:03:00,
2013-01-16 01:05:00,29.2,28.7,30.70,East,82,0.0,2.0,98,0.00,,---,0.00,0.00,VWS V14.01,2013-01-16 09:05:00,
2013-01-16 01:08:00,29.2,28.7,30.70,East,83,0.0,0.0,98,0.00,,---,0.00,0.00,VWS V14.01,2013-01-16 09:08:00,
2013-01-16 01:10:00,29.3,28.8,30.70,East,82,0.0,1.0,98,0.00,,---,0.00,0.00,VWS V14.01,2013-01-16 09:10:00,
2013-01-16 01:13:00,28.8,28.3,30.70,East,82,0.0,0.0,98,0.00,,---,0.00,0.00,VWS V14.01,2013-01-16 09:13:00,
2013-01-16 01:15:00,28.8,28.3,30.70,East,82,0.0,0.0,98,0.00,,---,0.00,0.00,VWS V14.01,2013-01-16 09:15:00,
2013-01-16 01:18:00,28.8,28.3,30.70,East,83,0.0,0.0,98,0.00,,---,0.00,0.00,VWS V14.01,2013-01-16 09:18:00,
2013-01-16 01:20:00,28.8,28.3,30.70,East,82,0.0,0.0,98,0.00,,---,0.00,0.00,VWS V14.01,2013-01-16 09:20:00,
2013-01-16 01:23:00,28.8,28.3,30.70,East,82,0.0,0.0,98,0.00,,---,0.00,0.00,VWS V14.01,2013-01-16 09:23:00,
2013-01-16 01:25:00,28.8,28.3,30.70,East,82,0.0,0.0,98,0.00,,---,0.00,0.00,VWS V14.01,2013-01-16 09:25:00,
2013-01-16 01:28:00,28.8,28.3,30.70,East,83,0.0,0.0,98,0.00,,---,0.00,0.00,VWS V14.01,2013-01-16 09:28:00,
2013-01-16 01:30:00,28.8,28.3,30.70,East,82,0.0,1.0,98,0.00,,---,0.00,0.00,VWS V14.01,2013-01-16 09:30:00,
2013-01-16 01:33:00,28.7,28.2,30.70,East,82,0.0,0.0,98,0.00,,---,0.00,0.00,VWS V14.01,2013-01-16 09:33:00,
2013-01-16 01:35:00,28.7,28.2,30.70,East,83,0.0,0.0,98,0.00,,---,0.00,0.00,VWS V14.01,2013-01-16 09:35:00,
2013-01-16 01:38:00,28.5,28.0,30.70,East,82,0.0,0.0,98,0.00,,---,0.00,0.00,VWS V14.01,2013-01-16 09:38:00,
2013-01-16 01:40:00,28.5,28.0,30.70,East,83,0.0,1.0,98,0.00,,---,0.00,0.00,VWS V14.01,2013-01-16 09:40:00,
2013-01-16 01:43:00,28.4,27.9,30.69,East,81,0.0,0.0,98,0.00,,---,0.00,0.00,VWS V14.01,2013-01-16 09:43:00,
2013-01-16 01:45:00,28.4,27.9,30.69,East,81,0.0,1.0,98,0.00,,---,0.00,0.00,VWS V14.01,2013-01-16 09:45:00,
2013-01-16 01:48:00,28.2,27.7,30.69,East,84,0.0,0.0,98,0.00,,---,0.00,0.00,VWS V14.01,2013-01-16 09:48:00,
2013-01-16 01:50:00,28.2,27.7,30.69,East,84,0.0,2.0,98,0.00,,---,0.00,0.00,VWS V14.01,2013-01-16 09:50:00,
2013-01-16 01:53:00,28.0,27.5,30.69,East,84,0.0,0.0,98,0.00,,---,0.00,0.00,VWS V14.01,2013-01-16 09:53:00,
2013-01-16 01:55:00,28.0,27.5,30.69,East,84,0.0,0.0,98,0.00,,---,0.00,0.00,VWS V14.01,2013-01-16 09:55:00,
2013-01-16 01:58:00,28.1,27.6,30.69,East,84,0.0,0.0,98,0.00,,---,0.00,0.00,VWS V14.01,2013-01-16 09:58:00,
2013-01-16 02:00:00,28.1,27.6,30.69,East,84,0.0,0.0,98,0.00,,---,0.00,0.00,VWS V14.01,2013-01-16 10:00:00,
2013-01-16 02:03:00,27.9,27.4,30.69,East,84,0.0,0.0,98,0.00,,---,0.00,0.00,VWS V14.01,2013-01-16 10:03:00,
2013-01-16 02:05:00,27.9,27.4,30.69,East,84,0.0,0.0,98,0.00,,---,0.00,0.00,VWS V14.01,2013-01-16 10:05:00,
2013-01-16 02:08:00,28.1,27.6,30.69,East,84,0.0,0.0,98,0.00,,---,0.00,0.00,VWS V14.01,2013-01-16 10:08:00,
2013-01-16 02:10:00,28.0,27.5,30.69,East,84,0.0,0.0,98,0.00,,---,0.00,0.00,VWS V14.01,2013-01-16 10:10:00,
2013-01-16 02:13:00,28.2,27.7,30.69,East,84,0.0,0.0,98,0.00,,---,0.00,0.00,VWS V14.01,2013-01-16 10:13:00,
2013-01-16 02:15:00,28.2,27.7,30.69,East,84,0.0,0.0,98,0.00,,---,0.00,0.00,VWS V14.01,2013-01-16 10:15:00,
2013-01-16 02:18:00,28.3,27.8,30.70,ENE,73,0.0,0.0,98,0.00,,---,0.00,0.00,VWS V14.01,2013-01-16 10:18:00,
2013-01-16 02:20:00,28.3,27.8,30.69,ENE,71,0.0,1.0,98,0.00,,---,0.00,0.00,VWS V14.01,2013-01-16 10:20:00,
2013-01-16 02:23:00,28.5,28.0,30.70,ENE,72,0.0,0.0,98,0.00,,---,0.00,0.00,VWS V14.01,2013-01-16 10:23:00,
2013-01-16 02:25:00,28.4,27.9,30.70,ENE,72,0.0,0.0,98,0.00,,---,0.00,0.00,VWS V14.01,2013-01-16 10:25:00,
2013-01-16 02:28:00,28.5,28.0,30.70,ENE,72,0.0,0.0,98,0.00,,---,0.00,0.00,VWS V14.01,2013-01-16 10:28:00,
2013-01-16 02:30:00,28.5,28.0,30.70,ENE,73,0.0,1.0,98,0.00,,---,0.00,0.00,VWS V14.01,2013-01-16 10:30:00,
2013-01-16 02:33:00,28.7,28.2,30.70,ENE,71,0.0,0.0,98,0.00,,---,0.00,0.00,VWS V14.01,2013-01-16 10:33:00,
2013-01-16 02:35:00,28.7,28.2,30.70,ENE,72,0.0,1.0,98,0.00,,---,0.00,0.00,VWS V14.01,2013-01-16 10:35:00,
2013-01-16 02:38:00,28.7,28.2,30.70,ENE,72,0.0,0.0,98,0.00,,---,0.00,0.00,VWS V14.01,2013-01-16 10:38:00,
2013-01-16 02:40:00,28.7,28.2,30.70,ENE,71,0.0,1.0,98,0.00,,---,0.00,0.00,VWS V14.01,2013-01-16 10:40:00,
2013-01-16 02:43:00,28.7,28.2,30.70,ENE,72,0.0,1.0,98,0.00,,---,0.00,0.00,VWS V14.01,2013-01-16 10:43:00,
2013-01-16 02:45:00,28.8,28.3,30.70,ENE,73,0.0,1.0,98,0.00,,---,0.00,0.00,VWS V14.01,2013-01-16 10:45:00,
2013-01-16 02:48:00,28.8,28.3,30.70,ENE,71,0.0,0.0,98,0.00,,---,0.00,0.00,VWS V14.01,2013-01-16 10:48:00,
2013-01-16 02:50:00,28.8,28.3,30.70,ENE,73,0.0,1.0,98,0.00,,---,0.00,0.00,VWS V14.01,2013-01-16 10:50:00,
2013-01-16 02:53:00,28.8,28.3,30.70,ENE,73,0.0,0.0,98,0.00,,---,0.00,0.00,VWS V14.01,2013-01-16 10:53:00,
2013-01-16 02:55:00,28.8,28.3,30.70,ENE,71,0.0,0.0,98,0.00,,---,0.00,0.00,VWS V14.01,2013-01-16 10:55:00,
2013-01-16 02:58:00,28.9,28.4,30.70,ENE,63,1.0,1.0,98,0.00,,---,0.00,0.00,VWS V14.01,2013-01-16 10:58:00,
2013-01-16 03:00:00,28.8,28.3,30.70,ENE,62,0.0,2.0,98,0.00,,---,0.00,0.00,VWS V14.01,2013-01-16 11:00:00,
2013-01-16 03:03:00,28.9,28.4,30.70,ENE,63,0.0,0.0,98,0.00,,---,0.00,0.00,VWS V14.01,2013-01-16 11:03:00,
2013-01-16 03:05:00,28.9,28.4,30.70,ENE,62,0.0,1.0,98,0.00,,---,0.00,0.00,VWS V14.01,2013-01-16 11:05:00,
2013-01-16 03:08:00,28.8,28.3,30.70,ENE,63,0.0,0.0,98,0.00,,---,0.00,0.00,VWS V14.01,2013-01-16 11:08:00,
2013-01-16 03:10:00,28.8,28.3,30.70,ENE,63,0.0,0.0,98,0.00,,---,0.00,0.00,VWS V14.01,2013-01-16 11:10:00,
2013-01-16 03:13:00,28.7,28.2,30.70,ENE,62,0.0,0.0,98,0.00,,---,0.00,0.00,VWS V14.01,2013-01-16 11:13:00,
2013-01-16 03:15:00,28.7,28.2,30.70,ENE,62,0.0,0.0,98,0.00,,---,0.00,0.00,VWS V14.01,2013-01-16 11:15:00,
2013-01-16 03:18:00,28.7,28.2,30.70,ENE,62,0.0,0.0,98,0.00,,---,0.00,0.00,VWS V14.01,2013-01-16 11:18:00,
2013-01-16 03:20:00,28.7,28.2,30.70,ENE,63,0.0,0.0,98,0.00,,---,0.00,0.00,VWS V14.01,2013-01-16 11:20:00,
2013-01-16 03:23:00,28.7,28.2,30.70,ENE,62,0.0,0.0,98,0.00,,---,0.00,0.00,VWS V14.01,2013-01-16 11:23:00,
2013-01-16 03:25:00,28.7,28.2,30.70,ENE,63,0.0,0.0,98,0.00,,---,0.00,0.00,VWS V14.01,2013-01-16 11:25:00,
2013-01-16 03:28:00,28.9,28.4,30.70,ENE,63,0.0,0.0,98,0.00,,---,0.00,0.00,VWS V14.01,2013-01-16 11:28:00,
2013-01-16 03:30:00,28.8,28.3,30.70,ENE,63,0.0,0.0,98,0.00,,---,0.00,0.00,VWS V14.01,2013-01-16 11:30:00,
2013-01-16 03:33:00,28.7,28.2,30.70,ENE,63,0.0,0.0,98,0.00,,---,0.00,0.00,VWS V14.01,2013-01-16 11:33:00,
2013-01-16 03:35:00,28.8,28.3,30.70,ENE,63,0.0,1.0,98,0.00,,---,0.00,0.00,VWS V14.01,2013-01-16 11:35:00,
2013-01-16 03:38:00,28.7,28.2,30.70,ENE,63,2.0,2.0,98,0.00,,---,0.00,0.00,VWS V14.01,2013-01-16 11:38:00,
2013-01-16 03:40:00,28.7,28.2,30.70,ENE,62,2.0,2.0,98,0.00,,---,0.00,0.00,VWS V14.01,2013-01-16 11:40:00,
2013-01-16 03:43:00,28.7,28.2,30.70,ENE,63,0.0,1.0,98,0.00,,---,0.00,0.00,VWS V14.01,2013-01-16 11:43:00,
2013-01-16 03:45:00,28.7,28.2,30.70,ENE,62,1.0,2.0,98,0.00,,---,0.00,0.00,VWS V14.01,2013-01-16 11:45:00,
2013-01-16 03:48:00,28.6,28.1,30.70,NE,40,1.0,2.0,98,0.00,,---,0.00,0.00,VWS V14.01,2013-01-16 11:48:00,
2013-01-16 03:50:00,28.7,28.2,30.70,NE,44,1.0,3.0,98,0.00,,---,0.00,0.00,VWS V14.01,2013-01-16 11:50:00,
2013-01-16 03:53:00,28.5,28.0,30.69,NE,40,0.0,0.0,98,0.00,,---,0.00,0.00,VWS V14.01,2013-01-16 11:53:00,
2013-01-16 03:55:00,28.5,28.0,30.70,NE,40,0.0,2.0,98,0.00,,---,0.00,0.00,VWS V14.01,2013-01-16 11:55:00,
2013-01-16 03:58:00,28.4,27.9,30.69,ENE,73,1.0,1.0,98,0.00,,---,0.00,0.00,VWS V14.01,2013-01-16 11:58:00,
2013-01-16 04:00:00,28.4,27.9,30.69,NE,47,0.0,1.0,98,0.00,,---,0.00,0.00,VWS V14.01,2013-01-16 12:00:00,
2013-01-16 04:03:00,28.4,27.9,30.69,ENE,75,0.0,0.0,98,0.00,,---,0.00,0.00,VWS V14.01,2013-01-16 12:03:00,
2013-01-16 04:05:00,28.4,27.9,30.69,ENE,74,0.0,1.0,98,0.00,,---,0.00,0.00,VWS V14.01,2013-01-16 12:05:00,
2013-01-16 04:08:00,28.3,27.8,30.69,ENE,75,0.0,0.0,98,0.00,,---,0.00,0.00,VWS V14.01,2013-01-16 12:08:00,
2013-01-16 04:10:00,28.3,27.8,30.69,ENE,75,0.0,0.0,98,0.00,,---,0.00,0.00,VWS V14.01,2013-01-16 12:10:00,
2013-01-16 04:13:00,28.3,27.8,30.69,ENE,74,0.0,0.0,98,0.00,,---,0.00,0.00,VWS V14.01,2013-01-16 12:13:00,
2013-01-16 04:15:00,28.3,27.8,30.69,ENE,75,0.0,0.0,98,0.00,,---,0.00,0.00,VWS V14.01,2013-01-16 12:15:00,
2013-01-16 04:18:00,28.2,27.7,30.69,ENE,74,0.0,0.0,98,0.00,,---,0.00,0.00,VWS V14.01,2013-01-16 12:18:00,
2013-01-16 04:20:00,28.2,27.7,30.69,ENE,75,0.0,1.0,98,0.00,,---,0.00,0.00,VWS V14.01,2013-01-16 12:20:00,
2013-01-16 04:23:00,28.3,27.8,30.69,ENE,74,0.0,0.0,98,0.00,,---,0.00,0.00,VWS V14.01,2013-01-16 12:23:00,
2013-01-16 04:25:00,28.3,27.8,30.69,ENE,75,0.0,0.0,98,0.00,,---,0.00,0.00,VWS V14.01,2013-01-16 12:25:00,
2013-01-16 04:28:00,28.3,28.0,30.69,ENE,75,0.0,0.0,99,0.00,,---,0.00,0.00,VWS V14.01,2013-01-16 12:28:00,
2013-01-16 04:30:00,28.3,28.1,30.69,ENE,74,0.0,0.0,99,0.00,,---,0.00,0.00,VWS V14.01,2013-01-16 12:30:00,
2013-01-16 04:33:00,28.4,28.1,30.69,ENE,75,0.0,0.0,99,0.00,,---,0.00,0.00,VWS V14.01,2013-01-16 12:33:00,
2013-01-16 04:35:00,28.4,28.2,30.69,ENE,74,0.0,0.0,99,0.00,,---,0.00,0.00,VWS V14.01,2013-01-16 12:35:00,
2013-01-16 04:38:00,28.3,28.0,30.68,ENE,74,0.0,0.0,99,0.00,,---,0.00,0.00,VWS V14.01,2013-01-16 12:38:00,
2013-01-16 04:40:00,28.3,28.1,30.68,ENE,75,0.0,0.0,99,0.00,,---,0.00,0.00,VWS V14.01,2013-01-16 12:40:00,
2013-01-16 04:43:00,28.3,28.0,30.69,ENE,74,0.0,0.0,99,0.00,,---,0.00,0.00,VWS V14.01,2013-01-16 12:43:00,
2013-01-16 04:45:00,28.3,28.1,30.68,ENE,74,0.0,0.0,99,0.00,,---,0.00,0.00,VWS V14.01,2013-01-16 12:45:00,
2013-01-16 04:48:00,28.4,28.1,30.68,ENE,74,0.0,0.0,99,0.00,,---,0.00,0.00,VWS V14.01,2013-01-16 12:48:00,
2013-01-16 04:50:00,28.4,28.2,30.68,ENE,75,0.0,0.0,99,0.00,,---,0.00,0.00,VWS V14.01,2013-01-16 12:50:00,
2013-01-16 04:53:00,28.5,28.0,30.68,ENE,74,0.0,0.0,98,0.00,,---,0.00,0.00,VWS V14.01,2013-01-16 12:53:00,
2013-01-16 04:55:00,28.5,28.0,30.68,ENE,75,0.0,0.0,98,0.00,,---,0.00,0.00,VWS V14.01,2013-01-16 12:55:00,
2013-01-16 04:58:00,28.5,28.2,30.68,NE,34,0.0,0.0,99,0.00,,---,0.00,0.00,VWS V14.01,2013-01-16 12:58:00,
2013-01-16 05:00:00,28.5,28.2,30.68,NE,34,0.0,1.0,99,0.00,,---,0.00,0.00,VWS V14.01,2013-01-16 13:00:00,
2013-01-16 05:03:00,28.6,28.4,30.68,NE,34,0.0,0.0,99,0.00,,---,0.00,0.00,VWS V14.01,2013-01-16 13:03:00,
2013-01-16 05:05:00,28.6,28.4,30.68,NE,34,0.0,1.0,99,0.00,,---,0.00,0.00,VWS V14.01,2013-01-16 13:05:00,
2013-01-16 05:08:00,28.7,28.5,30.68,ENE,60,0.0,0.0,99,0.00,,---,0.00,0.00,VWS V14.01,2013-01-16 13:08:00,
2013-01-16 05:10:00,28.7,28.5,30.68,ENE,60,0.0,1.0,99,0.00,,---,0.00,0.00,VWS V14.01,2013-01-16 13:10:00,
2013-01-16 05:13:00,28.6,28.4,30.68,ENE,59,0.0,0.0,99,0.00,,---,0.00,0.00,VWS V14.01,2013-01-16 13:13:00,
2013-01-16 05:15:00,28.6,28.4,30.68,ENE,59,0.0,0.0,99,0.00,,---,0.00,0.00,VWS V14.01,2013-01-16 13:15:00,
2013-01-16 05:18:00,28.5,28.2,30.68,ENE,60,0.0,0.0,99,0.00,,---,0.00,0.00,VWS V14.01,2013-01-16 13:18:00,
2013-01-16 05:20:00,28.5,28.2,30.68,ENE,60,0.0,0.0,99,0.00,,---,0.00,0.00,VWS V14.01,2013-01-16 13:20:00,
2013-01-16 05:23:00,28.7,28.5,30.68,ENE,60,0.0,0.0,99,0.00,,---,0.00,0.00,VWS V14.01,2013-01-16 13:23:00,
2013-01-16 05:25:00,28.7,28.5,30.68,ENE,59,0.0,1.0,99,0.00,,---,0.00,0.00,VWS V14.01,2013-01-16 13:25:00,
2013-01-16 05:28:00,28.6,28.4,30.68,ENE,60,0.0,0.0,99,0.00,,---,0.00,0.00,VWS V14.01,2013-01-16 13:28:00,
2013-01-16 05:30:00,28.6,28.4,30.68,ENE,60,0.0,0.0,99,0.00,,---,0.00,0.00,VWS V14.01,2013-01-16 13:30:00,
2013-01-16 05:33:00,28.6,28.4,30.67,ENE,60,0.0,0.0,99,0.00,,---,0.00,0.00,VWS V14.01,2013-01-16 13:33:00,
2013-01-16 05:35:00,28.6,28.4,30.67,ENE,60,0.0,0.0,99,0.00,,---,0.00,0.00,VWS V14.01,2013-01-16 13:35:00,
2013-01-16 05:38:00,28.4,28.1,30.67,ENE,59,0.0,0.0,99,0.00,,---,0.00,0.00,VWS V14.01,2013-01-16 13:38:00,
2013-01-16 05:40:00,28.5,28.2,30.67,ENE,59,0.0,1.0,99,0.00,,---,0.00,0.00,VWS V14.01,2013-01-16 13:40:00,
2013-01-16 05:43:00,28.4,28.1,30.67,ENE,60,0.0,0.0,99,0.00,,---,0.00,0.00,VWS V14.01,2013-01-16 13:43:00,
2013-01-16 05:45:00,28.4,28.2,30.67,ENE,60,0.0,0.0,99,0.00,,---,0.00,0.00,VWS V14.01,2013-01-16 13:45:00,
2013-01-16 05:48:00,28.4,28.1,30.67,ENE,60,0.0,0.0,99,0.00,,---,0.00,0.00,VWS V14.01,2013-01-16 13:48:00,
2013-01-16 05:50:00,28.4,28.2,30.67,ENE,60,0.0,0.0,99,0.00,,---,0.00,0.00,VWS V14.01,2013-01-16 13:50:00,
2013-01-16 05:53:00,28.3,28.0,30.67,ENE,60,0.0,0.0,99,0.00,,---,0.00,0.00,VWS V14.01,2013-01-16 13:53:00,
2013-01-16 05:55:00,28.3,28.1,30.67,ENE,60,0.0,0.0,99,0.00,,---,0.00,0.00,VWS V14.01,2013-01-16 13:55:00,
2013-01-16 05:58:00,28.2,28.0,30.67,ENE,60,0.0,0.0,99,0.00,,---,0.00,0.00,VWS V14.01,2013-01-16 13:58:00,
2013-01-16 06:00:00,28.2,28.0,30.67,ENE,59,0.0,0.0,99,0.00,,---,0.00,0.00,VWS V14.01,2013-01-16 14:00:00,
2013-01-16 06:03:00,28.1,27.6,30.67,ENE,59,0.0,0.0,98,0.00,,---,0.00,0.00,VWS V14.01,2013-01-16 14:03:00,
2013-01-16 06:05:00,28.1,27.6,30.67,ENE,59,0.0,0.0,98,0.00,,---,0.00,0.00,VWS V14.01,2013-01-16 14:05:00,
2013-01-16 06:08:00,28.1,27.6,30.67,ENE,60,0.0,0.0,98,0.00,,---,0.00,0.00,VWS V14.01,2013-01-16 14:08:00,
2013-01-16 06:10:00,28.1,27.6,30.67,ENE,60,0.0,0.0,98,0.00,,---,0.00,0.00,VWS V14.01,2013-01-16 14:10:00,
2013-01-16 06:13:00,28.2,28.0,30.67,ENE,60,0.0,0.0,99,0.00,,---,0.00,0.00,VWS V14.01,2013-01-16 14:13:00,
2013-01-16 06:15:00,28.2,28.0,30.67,ENE,60,0.0,1.0,99,0.00,,---,0.00,0.00,VWS V14.01,2013-01-16 14:15:00,
2013-01-16 06:18:00,28.3,28.0,30.67,ENE,60,0.0,0.0,99,0.00,,---,0.00,0.00,VWS V14.01,2013-01-16 14:18:00,
2013-01-16 06:20:00,28.3,28.1,30.67,ENE,60,0.0,1.0,99,0.00,,---,0.00,0.00,VWS V14.01,2013-01-16 14:20:00,
2013-01-16 06:23:00,28.3,28.0,30.67,ENE,60,0.0,1.0,99,0.00,,---,0.00,0.00,VWS V14.01,2013-01-16 14:23:00,
2013-01-16 06:25:00,28.3,28.1,30.67,ENE,60,0.0,1.0,99,0.00,,---,0.00,0.00,VWS V14.01,2013-01-16 14:25:00,
2013-01-16 06:28:00,28.3,28.0,30.67,ENE,60,0.0,1.0,99,0.00,,---,0.00,0.00,VWS V14.01,2013-01-16 14:28:00,
2013-01-16 06:30:00,28.3,28.1,30.67,ENE,60,0.0,1.0,99,0.00,,---,0.00,0.00,VWS V14.01,2013-01-16 14:30:00,
2013-01-16 06:33:00,28.3,28.0,30.67,ENE,59,0.0,0.0,99,0.00,,---,0.00,0.00,VWS V14.01,2013-01-16 14:33:00,
2013-01-16 06:35:00,28.3,28.1,30.67,ENE,58,0.0,1.0,99,0.00,,---,0.00,0.00,VWS V14.01,2013-01-16 14:35:00,
2013-01-16 06:38:00,28.3,28.0,30.66,ENE,58,0.0,0.0,99,0.00,,---,0.00,0.00,VWS V14.01,2013-01-16 14:38:00,
2013-01-16 06:40:00,28.3,28.1,30.66,ENE,58,0.0,0.0,99,0.00,,---,0.00,0.00,VWS V14.01,2013-01-16 14:40:00,
2013-01-16 06:43:00,28.3,28.0,30.66,ENE,58,0.0,0.0,99,0.00,,---,0.00,0.00,VWS V14.01,2013-01-16 14:43:00,
2013-01-16 06:45:00,28.3,28.1,30.67,ENE,59,0.0,1.0,99,0.00,,---,0.00,0.00,VWS V14.01,2013-01-16 14:45:00,
2013-01-16 06:48:00,28.2,28.0,30.66,NE,55,0.0,0.0,99,0.00,,---,0.00,0.00,VWS V14.01,2013-01-16 14:48:00,
2013-01-16 06:50:00,28.2,28.0,30.66,NE,54,0.0,2.0,99,0.00,,---,0.00,0.00,VWS V14.01,2013-01-16 14:50:00,
2013-01-16 06:53:00,28.4,28.1,30.66,ENE,61,0.0,0.0,99,0.00,,---,0.00,0.00,VWS V14.01,2013-01-16 14:53:00,
2013-01-16 06:55:00,28.4,28.2,30.66,ENE,60,0.0,1.0,99,0.00,,---,0.00,0.00,VWS V14.01,2013-01-16 14:55:00,
2013-01-16 06:58:00,28.3,28.0,30.66,ESE,117,0.0,0.0,99,0.00,,---,0.00,0.00,VWS V14.01,2013-01-16 14:58:00,
2013-01-16 07:00:00,28.3,28.1,30.66,ESE,118,0.0,1.0,99,0.00,,---,0.00,0.00,VWS V14.01,2013-01-16 15:00:00,
2013-01-16 07:03:00,28.3,28.0,30.66,ESE,117,0.0,0.0,99,0.00,,---,0.00,0.00,VWS V14.01,2013-01-16 15:03:00,
2013-01-16 07:05:00,28.3,28.1,30.66,ESE,117,0.0,1.0,99,0.00,,---,0.00,0.00,VWS V14.01,2013-01-16 15:05:00,
2013-01-16 07:08:00,28.3,28.0,30.66,ESE,117,0.0,1.0,99,0.00,,---,0.00,0.00,VWS V14.01,2013-01-16 15:08:00,
2013-01-16 07:10:00,28.2,28.0,30.66,ESE,117,1.0,1.0,99,0.00,,---,0.00,0.00,VWS V14.01,2013-01-16 15:10:00,
2013-01-16 07:13:00,28.1,27.9,30.66,ESE,118,0.0,1.0,99,0.00,,---,0.00,0.00,VWS V14.01,2013-01-16 15:13:00,
2013-01-16 07:15:00,28.1,27.9,30.66,ESE,118,0.0,1.0,99,0.00,,---,0.00,0.00,VWS V14.01,2013-01-16 15:15:00,
2013-01-16 07:18:00,28.1,27.9,30.66,ESE,113,0.0,0.0,99,0.00,,---,0.00,0.00,VWS V14.01,2013-01-16 15:18:00,
2013-01-16 07:20:00,28.1,27.9,30.66,ESE,111,0.0,0.0,99,0.00,,---,0.00,0.00,VWS V14.01,2013-01-16 15:20:00,
2013-01-16 07:23:00,28.0,27.5,30.66,ENE,64,1.0,1.0,98,0.00,,---,0.00,0.00,VWS V14.01,2013-01-16 15:23:00,
2013-01-16 07:25:00,28.0,27.5,30.66,ENE,65,1.0,1.0,98,0.00,,---,0.00,0.00,VWS V14.01,2013-01-16 15:25:00,
2013-01-16 07:28:00,27.9,27.7,30.66,ENE,61,1.0,2.0,99,0.00,,---,0.00,0.00,VWS V14.01,2013-01-16 15:28:00,
2013-01-16 07:30:00,27.9,27.7,30.66,ENE,63,2.0,2.0,99,0.00,,---,0.00,0.00,VWS V14.01,2013-01-16 15:30:00,
2013-01-16 07:33:00,27.8,27.6,30.66,NE,42,0.0,1.0,99,0.00,,---,0.00,0.00,VWS V14.01,2013-01-16 15:33:00,
2013-01-16 07:35:00,27.8,27.6,30.66,NE,42,1.0,2.0,99,0.00,,---,0.00,0.00,VWS V14.01,2013-01-16 15:35:00,
2013-01-16 07:38:00,27.8,27.6,30.66,NE,42,0.0,0.0,99,0.00,,---,0.00,0.00,VWS V14.01,2013-01-16 15:38:00,
2013-01-16 07:40:00,27.9,27.7,30.66,NE,42,0.0,1.0,99,0.00,,---,0.00,0.00,VWS V14.01,2013-01-16 15:40:00,
2013-01-16 07:43:00,27.8,27.3,30.66,NE,42,1.0,2.0,98,0.00,,---,0.00,0.00,VWS V14.01,2013-01-16 15:43:00,
2013-01-16 07:45:00,27.8,27.6,30.66,NE,42,2.0,2.0,99,0.00,,---,0.00,0.00,VWS V14.01,2013-01-16 15:45:00,
2013-01-16 07:48:00,27.6,27.1,30.66,NE,42,0.0,1.0,98,0.00,,---,0.00,0.00,VWS V14.01,2013-01-16 15:48:00,
2013-01-16 07:50:00,27.6,27.1,30.66,NE,42,1.0,2.0,98,0.00,,---,0.00,0.00,VWS V14.01,2013-01-16 15:50:00,
2013-01-16 07:53:00,27.6,27.1,30.66,NE,42,0.0,0.0,98,0.00,,---,0.00,0.00,VWS V14.01,2013-01-16 15:53:00,
2013-01-16 07:55:00,27.6,27.1,30.66,NE,43,0.0,1.0,98,0.00,,---,0.00,0.00,VWS V14.01,2013-01-16 15:55:00,
2013-01-16 07:58:00,27.6,27.1,30.66,NE,43,0.0,0.0,98,0.00,,---,0.00,5.00,VWS V14.01,2013-01-16 15:58:00,
2013-01-16 08:00:00,27.6,27.1,30.66,NE,42,0.0,0.0,98,0.00,,---,0.00,5.00,VWS V14.01,2013-01-16 16:00:00,
2013-01-16 08:03:00,27.6,27.1,30.66,NE,43,0.0,0.0,98,0.00,,---,0.00,5.00,VWS V14.01,2013-01-16 16:03:00,
2013-01-16 08:05:00,27.6,27.1,30.66,NE,43,0.0,0.0,98,0.00,,---,0.00,5.00,VWS V14.01,2013-01-16 16:05:00,
2013-01-16 08:08:00,27.7,27.2,30.66,NE,42,0.0,1.0,98,0.00,,---,0.00,9.00,VWS V14.01,2013-01-16 16:08:00,
2013-01-16 08:10:00,27.7,27.2,30.66,NE,42,1.0,1.0,98,0.00,,---,0.00,9.00,VWS V14.01,2013-01-16 16:10:00,
2013-01-16 08:13:00,27.8,27.3,30.66,NE,43,1.0,1.0,98,0.00,,---,0.00,11.00,VWS V14.01,2013-01-16 16:13:00,
2013-01-16 08:15:00,27.8,27.3,30.66,NE,43,0.0,1.0,98,0.00,,---,0.00,11.00,VWS V14.01,2013-01-16 16:15:00,
2013-01-16 08:18:00,27.8,27.6,30.66,NE,43,0.0,1.0,99,0.00,,---,0.00,12.00,VWS V14.01,2013-01-16 16:18:00,
2013-01-16 08:20:00,27.8,27.6,30.66,NE,43,0.0,1.0,99,0.00,,---,0.00,12.00,VWS V14.01,2013-01-16 16:20:00,
2013-01-16 08:23:00,27.9,27.7,30.66,NE,43,0.0,2.0,99,0.00,,---,0.00,16.00,VWS V14.01,2013-01-16 16:23:00,
2013-01-16 08:25:00,27.9,27.7,30.66,NE,42,0.0,2.0,99,0.00,,---,0.00,16.00,VWS V14.01,2013-01-16 16:25:00,
2013-01-16 08:28:00,27.9,27.7,30.66,NE,43,0.0,1.0,99,0.00,,---,0.00,16.00,VWS V14.01,2013-01-16 16:28:00,
2013-01-16 08:30:00,27.9,27.7,30.66,NE,42,1.0,2.0,99,0.00,,---,0.00,16.00,VWS V14.01,2013-01-16 16:30:00,
2013-01-16 08:33:00,27.9,27.7,30.66,NE,42,0.0,0.0,99,0.00,,---,0.00,21.00,VWS V14.01,2013-01-16 16:33:00,
2013-01-16 08:35:00,27.9,27.7,30.66,NE,42,0.0,1.0,99,0.00,,---,0.00,21.00,VWS V14.01,2013-01-16 16:35:00,
2013-01-16 08:38:00,27.9,27.7,30.66,NE,42,0.0,0.0,99,0.00,,---,0.00,23.00,VWS V14.01,2013-01-16 16:38:00,
2013-01-16 08:40:00,28.0,27.8,30.66,NE,42,0.0,1.0,99,0.00,,---,0.00,21.00,VWS V14.01,2013-01-16 16:40:00,
2013-01-16 08:43:00,27.9,27.7,30.67,NE,42,0.0,0.0,99,0.00,,---,0.00,21.00,VWS V14.01,2013-01-16 16:43:00,
2013-01-16 08:45:00,27.9,27.7,30.67,NE,42,0.0,0.0,99,0.00,,---,0.00,21.00,VWS V14.01,2013-01-16 16:45:00,
2013-01-16 08:48:00,27.9,27.7,30.67,NE,43,0.0,0.0,99,0.00,,---,0.00,25.00,VWS V14.01,2013-01-16 16:48:00,
2013-01-16 08:50:00,27.9,27.7,30.67,NE,42,0.0,0.0,99,0.00,,---,0.00,25.00,VWS V14.01,2013-01-16 16:50:00,
2013-01-16 08:53:00,27.9,27.7,30.67,NE,42,0.0,0.0,99,0.00,,---,0.00,35.00,VWS V14.01,2013-01-16 16:53:00,
2013-01-16 08:55:00,27.9,27.7,30.67,NE,42,0.0,0.0,99,0.00,,---,0.00,32.00,VWS V14.01,2013-01-16 16:55:00,
2013-01-16 08:58:00,28.0,27.8,30.67,NE,42,0.0,0.0,99,0.00,,---,0.00,35.00,VWS V14.01,2013-01-16 16:58:00,
2013-01-16 09:00:00,28.0,27.8,30.67,NE,42,0.0,0.0,99,0.00,,---,0.00,33.00,VWS V14.01,2013-01-16 17:00:00,
2013-01-16 09:03:00,28.1,27.9,30.67,NE,42,1.0,1.0,99,0.00,,---,0.00,35.00,VWS V14.01,2013-01-16 17:03:00,
2013-01-16 09:05:00,28.1,27.9,30.67,NE,43,0.0,2.0,99,0.00,,---,0.00,37.00,VWS V14.01,2013-01-16 17:05:00,
2013-01-16 09:08:00,28.2,28.0,30.67,NE,43,0.0,0.0,99,0.00,,---,0.00,42.00,VWS V14.01,2013-01-16 17:08:00,
2013-01-16 09:10:00,28.2,28.0,30.67,NE,42,0.0,1.0,99,0.00,,---,0.00,42.00,VWS V14.01,2013-01-16 17:10:00,
2013-01-16 09:13:00,28.3,28.0,30.67,NE,42,0.0,0.0,99,0.00,,---,0.00,46.00,VWS V14.01,2013-01-16 17:13:00,
2013-01-16 09:15:00,28.3,28.1,30.67,NE,42,0.0,0.0,99,0.00,,---,0.00,46.00,VWS V14.01,2013-01-16 17:15:00,
2013-01-16 09:18:00,28.4,28.1,30.67,NE,42,0.0,0.0,99,0.00,,---,0.00,49.00,VWS V14.01,2013-01-16 17:18:00,
2013-01-16 09:20:00,28.4,28.2,30.66,NE,42,0.0,0.0,99,0.00,,---,0.00,49.00,VWS V14.01,2013-01-16 17:20:00,
2013-01-16 09:23:00,28.5,28.2,30.67,NE,43,0.0,2.0,99,0.00,,---,0.00,65.00,VWS V14.01,2013-01-16 17:23:00,
2013-01-16 09:25:00,28.5,28.2,30.67,NE,43,1.0,2.0,99,0.00,,---,0.00,65.00,VWS V14.01,2013-01-16 17:25:00,
2013-01-16 09:28:00,28.5,28.2,30.67,NE,42,1.0,1.0,99,0.00,,---,0.00,67.00,VWS V14.01,2013-01-16 17:28:00,
2013-01-16 09:30:00,28.5,28.2,30.67,NE,42,0.0,2.0,99,0.00,,---,0.00,67.00,VWS V14.01,2013-01-16 17:30:00,
2013-01-16 09:33:00,28.5,28.2,30.66,NE,42,0.0,1.0,99,0.00,,---,0.00,65.00,VWS V14.01,2013-01-16 17:33:00,
2013-01-16 09:35:00,28.5,28.2,30.67,NE,42,1.0,1.0,99,0.00,,---,0.00,65.00,VWS V14.01,2013-01-16 17:35:00,
2013-01-16 09:38:00,28.5,28.2,30.67,NE,42,1.0,1.0,99,0.00,,---,0.00,70.00,VWS V14.01,2013-01-16 17:38:00,
2013-01-16 09:40:00,28.5,28.2,30.67,NE,43,0.0,1.0,99,0.00,,---,0.00,65.00,VWS V14.01,2013-01-16 17:40:00,
2013-01-16 09:43:00,28.5,28.2,30.66,NE,42,0.0,0.0,99,0.00,,---,0.00,76.00,VWS V14.01,2013-01-16 17:43:00,
2013-01-16 09:45:00,28.5,28.2,30.66,NE,42,0.0,1.0,99,0.00,,---,0.00,70.00,VWS V14.01,2013-01-16 17:45:00,
2013-01-16 09:48:00,28.4,28.1,30.67,NE,43,0.0,1.0,99,0.00,,---,0.00,81.00,VWS V14.01,2013-01-16 17:48:00,
2013-01-16 09:50:00,28.5,28.2,30.67,NE,43,1.0,1.0,99,0.00,,---,0.00,79.00,VWS V14.01,2013-01-16 17:50:00,
2013-01-16 09:53:00,28.4,28.1,30.67,NE,42,0.0,0.0,99,0.00,,---,0.00,81.00,VWS V14.01,2013-01-16 17:53:00,
2013-01-16 09:55:00,28.4,28.2,30.67,NE,42,0.0,1.0,99,0.00,,---,0.00,81.00,VWS V14.01,2013-01-16 17:55:00,
2013-01-16 09:58:00,28.5,28.2,30.67,NE,42,1.0,1.0,99,0.00,,---,0.00,86.00,VWS V14.01,2013-01-16 17:58:00,
2013-01-16 10:00:00,28.5,28.2,30.67,NE,42,1.0,1.0,99,0.00,,---,0.00,86.00,VWS V14.01,2013-01-16 18:00:00,
2013-01-16 10:03:00,28.7,28.5,30.66,NE,42,1.0,1.0,99,0.00,,---,0.00,98.00,VWS V14.01,2013-01-16 18:03:00,
2013-01-16 10:05:00,28.7,28.5,30.66,NE,42,0.0,1.0,99,0.00,,---,0.00,98.00,VWS V14.01,2013-01-16 18:05:00,
2013-01-16 10:08:00,28.6,28.4,30.66,NE,42,0.0,0.0,99,0.00,,---,0.00,100.00,VWS V14.01,2013-01-16 18:08:00,
2013-01-16 10:10:00,28.6,28.4,30.66,NE,42,0.0,1.0,99,0.00,,---,0.00,104.00,VWS V14.01,2013-01-16 18:10:00,
2013-01-16 10:13:00,28.5,28.2,30.66,NE,43,0.0,0.0,99,0.01,,---,0.01,98.00,VWS V14.01,2013-01-16 18:13:00,
2013-01-16 10:15:00,28.5,28.2,30.66,NE,42,0.0,0.0,99,0.01,,---,0.01,97.00,VWS V14.01,2013-01-16 18:15:00,
2013-01-16 10:18:00,28.4,28.1,30.66,South,170,1.0,2.0,99,0.01,,---,0.01,98.00,VWS V14.01,2013-01-16 18:18:00,
2013-01-16 10:20:00,28.4,28.2,30.66,NE,43,0.0,2.0,99,0.01,,---,0.01,97.00,VWS V14.01,2013-01-16 18:20:00,
2013-01-16 10:23:00,28.4,28.1,30.66,South,171,0.0,0.0,99,0.01,,---,0.01,109.00,VWS V14.01,2013-01-16 18:23:00,
2013-01-16 10:25:00,28.4,28.2,30.66,South,169,0.0,2.0,99,0.01,,---,0.01,105.00,VWS V14.01,2013-01-16 18:25:00,
2013-01-16 10:28:00,28.5,28.2,30.66,South,169,0.0,0.0,99,0.01,,---,0.01,121.00,VWS V14.01,2013-01-16 18:28:00,
2013-01-16 10:30:00,28.5,28.2,30.66,SSE,168,0.0,2.0,99,0.01,,---,0.01,121.00,VWS V14.01,2013-01-16 18:30:00,
2013-01-16 10:33:00,28.6,28.4,30.66,SSE,168,0.0,0.0,99,0.01,,---,0.01,144.00,VWS V14.01,2013-01-16 18:33:00,
2013-01-16 10:35:00,28.6,28.4,30.65,South,170,0.0,1.0,99,0.01,,---,0.01,144.00,VWS V14.01,2013-01-16 18:35:00,
2013-01-16 10:38:00,28.6,28.4,30.65,South,173,1.0,1.0,99,0.01,,---,0.01,144.00,VWS V14.01,2013-01-16 18:38:00,
2013-01-16 10:40:00,28.6,28.4,30.66,South,171,0.0,1.0,99,0.01,,---,0.01,148.00,VWS V14.01,2013-01-16 18:40:00,
2013-01-16 10:43:00,28.4,28.1,30.65,South,173,0.0,0.0,99,0.01,,---,0.01,127.00,VWS V14.01,2013-01-16 18:43:00,
2013-01-16 10:45:00,28.4,28.2,30.65,South,173,0.0,1.0,99,0.01,,---,0.01,128.00,VWS V14.01,2013-01-16 18:45:00,
2013-01-16 10:48:00,28.6,28.4,30.65,South,171,0.0,0.0,99,0.01,,---,0.01,121.00,VWS V14.01,2013-01-16 18:48:00,
2013-01-16 10:50:00,28.6,28.4,30.65,South,172,0.0,1.0,99,0.01,,---,0.01,120.00,VWS V14.01,2013-01-16 18:50:00,
2013-01-16 10:53:00,28.8,28.5,30.65,South,173,0.0,0.0,99,0.01,,---,0.01,114.00,VWS V14.01,2013-01-16 18:53:00,
2013-01-16 10:55:00,28.8,28.5,30.65,South,171,0.0,0.0,99,0.01,,---,0.01,121.00,VWS V14.01,2013-01-16 18:55:00,
2013-01-16 10:58:00,28.9,28.6,30.65,South,173,0.0,0.0,99,0.01,,---,0.01,127.00,VWS V14.01,2013-01-16 18:58:00,
2013-01-16 11:00:00,28.9,28.6,30.65,South,173,0.0,1.0,99,0.01,,---,0.01,127.00,VWS V14.01,2013-01-16 19:00:00,
2013-01-16 11:03:00,29.0,28.8,30.65,South,171,0.0,0.0,99,0.01,,---,0.01,146.00,VWS V14.01,2013-01-16 19:03:00,
2013-01-16 11:05:00,28.9,28.6,30.65,South,173,0.0,1.0,99,0.01,,---,0.01,146.00,VWS V14.01,2013-01-16 19:05:00,
2013-01-16 11:08:00,29.3,29.0,30.65,South,173,1.0,2.0,99,0.01,,---,0.01,144.00,VWS V14.01,2013-01-16 19:08:00,
2013-01-16 11:10:00,29.3,29.0,30.65,South,171,2.0,2.0,99,0.01,,---,0.01,149.00,VWS V14.01,2013-01-16 19:10:00,
2013-01-16 11:13:00,29.4,29.1,30.65,South,174,0.0,0.0,99,0.00,,---,0.01,139.00,VWS V14.01,2013-01-16 19:13:00,
2013-01-16 11:15:00,29.4,29.1,30.65,South,173,0.0,2.0,99,0.01,,---,0.01,141.00,VWS V14.01,2013-01-16 19:15:00,
2013-01-16 11:18:00,29.5,29.2,30.65,South,174,0.0,0.0,99,0.00,,---,0.01,130.00,VWS V14.01,2013-01-16 19:18:00,
2013-01-16 11:20:00,29.4,29.1,30.65,South,173,0.0,1.0,99,0.00,,---,0.01,127.00,VWS V14.01,2013-01-16 19:20:00,
2013-01-16 11:23:00,29.7,29.5,30.65,South,174,1.0,1.0,99,0.00,,---,0.01,142.00,VWS V14.01,2013-01-16 19:23:00,
2013-01-16 11:25:00,29.6,29.4,30.65,South,173,1.0,3.0,99,0.00,,---,0.01,139.00,VWS V14.01,2013-01-16 19:25:00,
2013-01-16 11:28:00,29.8,29.5,30.65,South,175,0.0,1.0,99,0.00,,---,0.01,171.00,VWS V14.01,2013-01-16 19:28:00,
2013-01-16 11:30:00,29.8,29.5,30.65,South,174,0.0,2.0,99,0.00,,---,0.01,172.00,VWS V14.01,2013-01-16 19:30:00,
2013-01-16 11:33:00,30.0,29.8,30.65,South,173,0.0,1.0,99,0.00,,---,0.01,151.00,VWS V14.01,2013-01-16 19:33:00,
2013-01-16 11:35:00,30.0,29.8,30.65,South,173,0.0,2.0,99,0.00,,---,0.01,155.00,VWS V14.01,2013-01-16 19:35:00,
2013-01-16 11:38:00,30.2,30.0,30.65,South,178,1.0,2.0,99,0.00,,---,0.01,174.00,VWS V14.01,2013-01-16 19:38:00,
2013-01-16 11:40:00,30.2,30.0,30.65,South,178,2.0,2.0,99,0.00,,---,0.01,174.00,VWS V14.01,2013-01-16 19:40:00,
2013-01-16 11:43:00,30.3,30.0,30.65,South,178,0.0,0.0,99,0.00,,---,0.01,169.00,VWS V14.01,2013-01-16 19:43:00,
2013-01-16 11:45:00,30.3,30.0,30.65,South,178,0.0,2.0,99,0.00,,---,0.01,169.00,VWS V14.01,2013-01-16 19:45:00,
2013-01-16 11:48:00,30.6,30.4,30.65,South,182,2.0,2.0,99,0.00,,---,0.01,139.00,VWS V14.01,2013-01-16 19:48:00,
2013-01-16 11:50:00,30.6,30.4,30.65,South,174,2.0,3.0,99,0.00,,---,0.01,130.00,VWS V14.01,2013-01-16 19:50:00,
2013-01-16 11:53:00,30.7,30.5,30.64,South,182,2.0,2.0,99,0.00,,---,0.01,207.00,VWS V14.01,2013-01-16 19:53:00,
2013-01-16 11:55:00,30.7,30.5,30.64,South,182,1.0,3.0,99,0.00,,---,0.01,195.00,VWS V14.01,2013-01-16 19:55:00,
2013-01-16 11:58:00,30.8,30.5,30.64,South,183,0.0,0.0,99,0.00,,---,0.01,230.00,VWS V14.01,2013-01-16 19:58:00,
2013-01-16 12:00:00,30.8,30.5,30.64,South,182,0.0,2.0,99,0.00,,---,0.01,244.00,VWS V14.01,2013-01-16 20:00:00,
2013-01-16 12:03:00,30.9,30.6,30.64,South,182,0.0,1.0,99,0.00,,---,0.01,218.00,VWS V14.01,2013-01-16 20:03:00,
2013-01-16 12:05:00,30.9,30.6,30.64,South,183,0.0,2.0,99,0.00,,---,0.01,214.00,VWS V14.01,2013-01-16 20:05:00,
2013-01-16 12:08:00,31.1,30.9,30.64,South,182,0.0,1.0,99,0.00,,---,0.01,251.00,VWS V14.01,2013-01-16 20:08:00,
2013-01-16 12:10:00,31.1,30.9,30.64,South,183,1.0,2.0,99,0.00,,---,0.01,258.00,VWS V14.01,2013-01-16 20:10:00,
2013-01-16 12:13:00,31.4,31.1,30.64,South,183,0.0,1.0,99,0.00,,---,0.01,399.00,VWS V14.01,2013-01-16 20:13:00,
2013-01-16 12:15:00,31.4,31.1,30.64,South,183,1.0,1.0,99,0.00,,---,0.01,399.00,VWS V14.01,2013-01-16 20:15:00,
2013-01-16 12:18:00,31.8,31.5,30.64,SSW,209,1.0,1.0,99,0.00,,---,0.01,369.00,VWS V14.01,2013-01-16 20:18:00,
2013-01-16 12:20:00,31.7,31.5,30.64,SSW,209,0.0,2.0,99,0.00,,---,0.01,369.00,VWS V14.01,2013-01-16 20:20:00,
2013-01-16 12:23:00,32.2,32.0,30.64,SSW,208,1.0,1.0,99,0.00,,---,0.01,346.00,VWS V14.01,2013-01-16 20:23:00,
2013-01-16 12:25:00,32.1,31.9,30.64,SSW,209,1.0,2.0,99,0.00,,---,0.01,357.00,VWS V14.01,2013-01-16 20:25:00,
2013-01-16 12:28:00,32.3,32.0,30.64,SSW,209,1.0,2.0,99,0.00,,---,0.01,343.00,VWS V14.01,2013-01-16 20:28:00,
2013-01-16 12:30:00,32.3,32.0,30.64,SSW,209,2.0,2.0,99,0.00,,---,0.01,311.00,VWS V14.01,2013-01-16 20:30:00,
2013-01-16 12:33:00,32.8,32.5,30.63,SSW,209,0.0,0.0,99,0.00,,---,0.01,341.00,VWS V14.01,2013-01-16 20:33:00,
2013-01-16 12:35:00,32.7,32.5,30.64,SSW,210,0.0,2.0,99,0.00,,---,0.01,343.00,VWS V14.01,2013-01-16 20:35:00,
2013-01-16 12:38:00,33.5,33.2,30.63,SSW,209,2.0,2.0,99,0.00,,---,0.01,345.00,VWS V14.01,2013-01-16 20:38:00,
2013-01-16 12:40:00,33.3,33.0,30.63,SSW,208,0.0,1.0,99,0.00,,---,0.01,341.00,VWS V14.01,2013-01-16 20:40:00,
2013-01-16 12:43:00,33.7,33.5,30.63,SSW,208,0.0,1.0,99,0.00,,---,0.01,341.00,VWS V14.01,2013-01-16 20:43:00,
2013-01-16 12:45:00,33.7,33.5,30.63,SSW,209,1.0,2.0,99,0.00,,---,0.01,343.00,VWS V14.01,2013-01-16 20:45:00,
2013-01-16 12:48:00,34.1,33.8,30.63,SSW,209,0.0,1.0,99,0.00,,---,0.01,330.00,VWS V14.01,2013-01-16 20:48:00,
2013-01-16 12:50:00,34.0,33.8,30.63,SSW,209,1.0,2.0,99,0.00,,---,0.01,330.00,VWS V14.01,2013-01-16 20:50:00,
2013-01-16 12:53:00,34.5,34.2,30.62,SSW,209,1.0,2.0,99,0.00,,---,0.01,320.00,VWS V14.01,2013-01-16 20:53:00,
2013-01-16 12:55:00,34.4,34.2,30.62,SSW,209,2.0,2.0,99,0.00,,---,0.01,320.00,VWS V14.01,2013-01-16 20:55:00,
2013-01-16 13:00:00,34.9,34.9,30.62,SSW,209,1.0,3.0,100,0.00,,---,0.01,332.00,VWS V14.01,2013-01-16 21:00:00,
2013-01-16 13:05:00,35.4,35.2,30.62,SSW,202,1.0,3.0,99,0.00,,---,0.01,318.00,VWS V14.01,2013-01-16 21:05:00,
2013-01-16 13:10:00,36.2,36.0,30.62,SW,225,1.0,3.0,99,0.00,,---,0.01,326.00,VWS V14.01,2013-01-16 21:10:00,
2013-01-16 13:15:00,36.7,36.5,30.62,WSW,248,1.0,3.0,99,0.00,,---,0.01,321.00,VWS V14.01,2013-01-16 21:15:00,
2013-01-16 13:20:00,36.9,36.4,30.62,SW,225,2.0,4.0,98,0.00,,---,0.01,317.00,VWS V14.01,2013-01-16 21:20:00,
2013-01-16 13:25:00,37.1,36.3,30.62,SW,225,1.0,3.0,97,0.00,,---,0.01,314.00,VWS V14.01,2013-01-16 21:25:00,
2013-01-16 13:30:00,37.5,36.2,30.61,SW,225,2.0,3.0,95,0.00,,---,0.01,310.00,VWS V14.01,2013-01-16 21:30:00,
2013-01-16 13:35:00,37.9,36.6,30.61,SW,225,1.0,3.0,95,0.00,,---,0.01,307.00,VWS V14.01,2013-01-16 21:35:00,
2013-01-16 13:40:00,38.0,36.2,30.61,SW,225,1.0,4.0,93,0.00,,---,0.01,284.00,VWS V14.01,2013-01-16 21:40:00,
2013-01-16 13:45:00,38.3,36.2,30.61,SW,225,1.0,4.0,92,0.00,,---,0.01,297.00,VWS V14.01,2013-01-16 21:45:00,
2013-01-16 13:50:00,38.6,36.2,30.61,SW,225,1.0,2.0,91,0.00,,---,0.01,292.00,VWS V14.01,2013-01-16 21:50:00,
2013-01-16 13:55:00,38.8,36.1,30.60,WSW,248,1.0,3.0,90,0.00,,---,0.01,285.00,VWS V14.01,2013-01-16 21:55:00,
2013-01-16 14:00:00,39.3,36.3,30.60,WSW,248,1.0,2.0,89,0.00,,---,0.01,278.00,VWS V14.01,2013-01-16 22:00:00,
2013-01-16 14:05:00,39.6,36.1,30.60,West,270,1.0,4.0,87,0.00,,---,0.01,272.00,VWS V14.01,2013-01-16 22:05:00,
2013-01-16 14:10:00,39.5,36.0,30.60,WNW,292,1.0,3.0,87,0.00,,---,0.01,255.00,VWS V14.01,2013-01-16 22:10:00,
2013-01-16 14:15:00,39.6,36.1,30.60,WNW,292,1.0,2.0,87,0.00,,---,0.01,252.00,VWS V14.01,2013-01-16 22:15:00,
2013-01-16 14:20:00,39.9,36.1,30.60,WSW,248,2.0,3.0,86,0.00,,---,0.01,247.00,VWS V14.01,2013-01-16 22:20:00,
2013-01-16 14:25:00,40.4,36.5,30.60,WNW,292,0.0,2.0,86,0.00,,---,0.01,238.00,VWS V14.01,2013-01-16 22:25:00,
2013-01-16 14:30:00,40.4,36.5,30.60,WNW,292,1.0,3.0,86,0.00,,---,0.01,229.00,VWS V14.01,2013-01-16 22:30:00,
2013-01-16 14:35:00,40.4,36.3,30.60,WNW,292,0.0,2.0,85,0.00,,---,0.01,220.00,VWS V14.01,2013-01-16 22:35:00,
2013-01-16 14:40:00,40.7,36.5,30.60,WNW,292,0.0,1.0,85,0.00,,---,0.01,209.00,VWS V14.01,2013-01-16 22:40:00,
2013-01-16 14:45:00,40.7,36.2,30.60,WNW,292,0.0,1.0,84,0.00,,---,0.01,200.00,VWS V14.01,2013-01-16 22:45:00,
2013-01-16 14:50:00,40.7,36.2,30.60,WNW,292,0.0,2.0,84,0.00,,---,0.01,190.00,VWS V14.01,2013-01-16 22:50:00,
2013-01-16 14:55:00,40.7,36.2,30.59,WNW,292,0.0,2.0,84,0.00,,---,0.01,179.00,VWS V14.01,2013-01-16 22:55:00,
2013-01-16 15:00:00,40.9,36.1,30.60,WNW,292,0.0,1.0,83,0.00,,---,0.01,168.00,VWS V14.01,2013-01-16 23:00:00,
2013-01-16 15:05:00,41.1,36.3,30.60,WNW,292,0.0,2.0,83,0.00,,---,0.01,155.00,VWS V14.01,2013-01-16 23:05:00,
2013-01-16 15:10:00,41.5,36.7,30.59,WNW,292,0.0,1.0,83,0.00,,---,0.01,143.00,VWS V14.01,2013-01-16 23:10:00,
2013-01-16 15:15:00,41.9,36.2,30.59,WNW,292,0.0,2.0,80,0.00,,---,0.01,132.00,VWS V14.01,2013-01-16 23:15:00,
2013-01-16 15:20:00,42.3,35.9,30.59,WNW,292,0.0,1.0,78,0.00,,---,0.01,121.00,VWS V14.01,2013-01-16 23:20:00,
2013-01-16 15:25:00,42.2,35.8,30.59,WNW,292,0.0,2.0,78,0.00,,---,0.01,112.00,VWS V14.01,2013-01-16 23:25:00,
2013-01-16 15:30:00,42.2,36.2,30.59,North,0,1.0,3.0,79,0.00,,---,0.01,101.00,VWS V14.01,2013-01-16 23:30:00,
2013-01-16 15:35:00,41.9,35.5,30.59,NNE,22,1.0,3.0,78,0.00,,---,0.01,85.00,VWS V14.01,2013-01-16 23:35:00,
2013-01-16 15:40:00,41.8,35.1,30.59,NNE,22,0.0,2.0,77,0.00,,---,0.01,80.00,VWS V14.01,2013-01-16 23:40:00,
2013-01-16 15:45:00,41.9,35.5,30.59,NNE,22,0.0,0.0,78,0.00,,---,0.01,68.00,VWS V14.01,2013-01-16 23:45:00,
2013-01-16 15:50:00,41.8,35.5,30.59,NNE,22,0.0,1.0,78,0.00,,---,0.01,58.00,VWS V14.01,2013-01-16 23:50:00,
2013-01-16 15:55:00,41.9,35.5,30.59,NNE,22,0.0,1.0,78,0.00,,---,0.01,50.00,VWS V14.01,2013-01-16 23:55:00,
2013-01-16 16:00:00,41.8,35.5,30.59,NNE,22,0.0,0.0,78,0.00,,---,0.01,41.00,VWS V14.01,2013-01-17 00:00:00,
2013-01-16 16:05:00,41.6,35.3,30.58,NNE,22,0.0,2.0,78,0.00,,---,0.01,33.00,VWS V14.01,2013-01-17 00:05:00,
2013-01-16 16:10:00,41.5,35.2,30.58,NNE,22,0.0,1.0,78,0.00,,---,0.01,25.00,VWS V14.01,2013-01-17 00:10:00,
2013-01-16 16:15:00,41.6,35.3,30.58,NNE,22,0.0,0.0,78,0.00,,---,0.01,20.00,VWS V14.01,2013-01-17 00:15:00,
2013-01-16 16:20:00,41.3,35.3,30.58,NNE,22,0.0,0.0,79,0.00,,---,0.01,18.00,VWS V14.01,2013-01-17 00:20:00,
2013-01-16 16:25:00,41.3,35.3,30.58,NNE,22,0.0,0.0,79,0.00,,---,0.01,16.00,VWS V14.01,2013-01-17 00:25:00,
2013-01-16 16:30:00,40.9,35.2,30.58,NNE,22,0.0,0.0,80,0.00,,---,0.01,13.00,VWS V14.01,2013-01-17 00:30:00,
2013-01-16 16:35:00,40.5,35.1,30.58,NNE,22,0.0,0.0,81,0.00,,---,0.01,12.00,VWS V14.01,2013-01-17 00:35:00,
2013-01-16 16:40:00,40.3,34.9,30.58,NNE,22,0.0,0.0,81,0.00,,---,0.01,10.00,VWS V14.01,2013-01-17 00:40:00,
2013-01-16 16:45:00,39.8,34.8,30.58,NNE,22,0.0,0.0,82,0.00,,---,0.01,8.00,VWS V14.01,2013-01-17 00:45:00,
2013-01-16 16:50:00,39.7,35.0,30.57,NNE,22,0.0,0.0,83,0.00,,---,0.01,5.00,VWS V14.01,2013-01-17 00:50:00,
2013-01-16 16:55:00,39.2,34.8,30.58,NNE,22,0.0,0.0,84,0.00,,---,0.01,1.00,VWS V14.01,2013-01-17 00:55:00,
2013-01-16 17:00:00,38.8,34.7,30.57,NNE,22,0.0,2.0,85,0.00,,---,0.01,0.00,VWS V14.01,2013-01-17 01:00:00,
2013-01-16 17:05:00,38.3,34.2,30.57,NNE,22,0.0,0.0,85,0.00,,---,0.01,0.00,VWS V14.01,2013-01-17 01:05:00,
2013-01-16 17:10:00,38.2,34.1,30.57,NNE,22,0.0,0.0,85,0.00,,---,0.01,0.00,VWS V14.01,2013-01-17 01:10:00,
2013-01-16 17:15:00,37.6,34.1,30.57,NNE,22,0.0,0.0,87,0.00,,---,0.01,0.00,VWS V14.01,2013-01-17 01:15:00,
2013-01-16 17:20:00,37.5,34.0,30.57,NNE,22,0.0,1.0,87,0.00,,---,0.01,0.00,VWS V14.01,2013-01-17 01:20:00,
2013-01-16 17:25:00,37.2,33.7,30.58,NNE,22,1.0,2.0,87,0.00,,---,0.01,0.00,VWS V14.01,2013-01-17 01:25:00,
2013-01-16 17:30:00,36.5,33.3,30.58,NNE,22,1.0,2.0,88,0.00,,---,0.01,0.00,VWS V14.01,2013-01-17 01:30:00,
2013-01-16 17:35:00,36.2,33.3,30.58,NE,45,1.0,2.0,89,0.00,,---,0.01,0.00,VWS V14.01,2013-01-17 01:35:00,
2013-01-16 17:40:00,35.8,33.2,30.58,NE,45,1.0,1.0,90,0.00,,---,0.01,0.00,VWS V14.01,2013-01-17 01:40:00,
2013-01-16 17:45:00,35.6,33.0,30.58,NE,45,0.0,1.0,90,0.00,,---,0.01,0.00,VWS V14.01,2013-01-17 01:45:00,
2013-01-16 17:50:00,35.4,32.8,30.58,NE,45,0.0,1.0,90,0.00,,---,0.01,0.00,VWS V14.01,2013-01-17 01:50:00,
2013-01-16 17:55:00,35.1,32.7,30.58,NE,45,0.0,1.0,91,0.00,,---,0.01,0.00,VWS V14.01,2013-01-17 01:55:00,
2013-01-16 18:00:00,35.1,33.0,30.58,NE,45,0.0,1.0,92,0.00,,---,0.01,0.00,VWS V14.01,2013-01-17 02:00:00,
2013-01-16 18:05:00,35.0,32.9,30.58,NE,45,0.0,1.0,92,0.00,,---,0.01,0.00,VWS V14.01,2013-01-17 02:05:00,
2013-01-16 18:10:00,35.2,33.1,30.58,NE,45,0.0,0.0,92,0.00,,---,0.01,0.00,VWS V14.01,2013-01-17 02:10:00,
2013-01-16 18:15:00,35.3,32.9,30.58,NE,45,0.0,0.0,91,0.00,,---,0.01,0.00,VWS V14.01,2013-01-17 02:15:00,
2013-01-16 18:20:00,34.8,32.7,30.58,NE,45,0.0,0.0,92,0.00,,---,0.01,0.00,VWS V14.01,2013-01-17 02:20:00,
2013-01-16 18:25:00,34.2,32.1,30.58,NE,45,0.0,0.0,92,0.00,,---,0.01,0.00,VWS V14.01,2013-01-17 02:25:00,
2013-01-16 18:30:00,34.1,32.3,30.58,NE,45,0.0,0.0,93,0.00,,---,0.01,0.00,VWS V14.01,2013-01-17 02:30:00,
2013-01-16 18:35:00,34.1,32.3,30.58,NE,45,0.0,1.0,93,0.00,,---,0.01,0.00,VWS V14.01,2013-01-17 02:35:00,
2013-01-16 18:40:00,34.0,32.2,30.58,NE,45,0.0,0.0,93,0.00,,---,0.01,0.00,VWS V14.01,2013-01-17 02:40:00,
2013-01-16 18:45:00,33.8,32.3,30.58,NE,45,0.0,0.0,94,0.00,,---,0.01,0.00,VWS V14.01,2013-01-17 02:45:00,
2013-01-16 18:50:00,33.7,32.2,30.58,NE,45,0.0,0.0,94,0.00,,---,0.01,0.00,VWS V14.01,2013-01-17 02:50:00,
2013-01-16 18:55:00,33.5,32.0,30.58,NE,45,0.0,0.0,94,0.00,,---,0.01,0.00,VWS V14.01,2013-01-17 02:55:00,
2013-01-16 19:00:00,33.2,31.7,30.58,NE,45,0.0,0.0,94,0.00,,---,0.01,0.00,VWS V14.01,2013-01-17 03:00:00,
2013-01-16 19:05:00,33.1,31.6,30.59,NE,45,0.0,0.0,94,0.00,,---,0.01,0.00,VWS V14.01,2013-01-17 03:05:00,
2013-01-16 19:10:00,32.9,31.4,30.58,NE,45,0.0,0.0,94,0.00,,---,0.01,0.00,VWS V14.01,2013-01-17 03:10:00,
2013-01-16 19:15:00,33.0,31.7,30.58,NE,45,0.0,1.0,95,0.00,,---,0.01,0.00,VWS V14.01,2013-01-17 03:15:00,
2013-01-16 19:20:00,33.5,32.2,30.58,NE,45,0.0,0.0,95,0.00,,---,0.01,0.00,VWS V14.01,2013-01-17 03:20:00,
2013-01-16 19:25:00,33.6,32.1,30.58,NE,45,0.0,0.0,94,0.00,,---,0.01,0.00,VWS V14.01,2013-01-17 03:25:00,
2013-01-16 19:30:00,33.6,32.1,30.58,NE,45,0.0,0.0,94,0.00,,---,0.01,0.00,VWS V14.01,2013-01-17 03:30:00,
2013-01-16 19:35:00,33.3,31.8,30.58,NE,45,0.0,1.0,94,0.00,,---,0.01,0.00,VWS V14.01,2013-01-17 03:35:00,
2013-01-16 19:40:00,32.9,31.4,30.57,NE,45,0.0,1.0,94,0.00,,---,0.01,0.00,VWS V14.01,2013-01-17 03:40:00,
2013-01-16 19:45:00,32.9,31.6,30.57,NE,45,0.0,1.0,95,0.00,,---,0.01,0.00,VWS V14.01,2013-01-17 03:45:00,
2013-01-16 19:50:00,32.9,31.6,30.57,NE,45,0.0,1.0,95,0.00,,---,0.01,0.00,VWS V14.01,2013-01-17 03:50:00,
2013-01-16 19:55:00,32.6,31.3,30.57,NE,45,0.0,0.0,95,0.00,,---,0.01,0.00,VWS V14.01,2013-01-17 03:55:00,
2013-01-16 20:00:00,32.5,31.5,30.57,NE,45,0.0,1.0,96,0.00,,---,0.01,0.00,VWS V14.01,2013-01-17 04:00:00,
2013-01-16 20:05:00,32.1,30.8,30.57,NE,45,0.0,0.0,95,0.00,,---,0.01,0.00,VWS V14.01,2013-01-17 04:05:00,
2013-01-16 20:10:00,31.9,30.6,30.57,NE,45,0.0,2.0,95,0.00,,---,0.01,0.00,VWS V14.01,2013-01-17 04:10:00,
2013-01-16 20:15:00,31.9,30.9,30.57,NE,45,0.0,1.0,96,0.00,,---,0.01,0.00,VWS V14.01,2013-01-17 04:15:00,
2013-01-16 20:20:00,32.0,31.0,30.57,NE,45,0.0,1.0,96,0.00,,---,0.01,0.00,VWS V14.01,2013-01-17 04:20:00,
2013-01-16 20:25:00,32.1,31.1,30.57,NE,45,0.0,0.0,96,0.00,,---,0.01,0.00,VWS V14.01,2013-01-17 04:25:00,
2013-01-16 20:30:00,31.7,30.4,30.57,NE,45,0.0,0.0,95,0.00,,---,0.01,0.00,VWS V14.01,2013-01-17 04:30:00,
2013-01-16 20:35:00,31.3,30.3,30.56,NE,45,0.0,0.0,96,0.00,,---,0.01,0.00,VWS V14.01,2013-01-17 04:35:00,
2013-01-16 20:40:00,31.4,30.4,30.56,NE,45,0.0,0.0,96,0.00,,---,0.01,0.00,VWS V14.01,2013-01-17 04:40:00,
2013-01-16 20:45:00,31.2,30.2,30.56,NE,45,0.0,2.0,96,0.00,,---,0.01,0.00,VWS V14.01,2013-01-17 04:45:00,
2013-01-16 20:50:00,30.8,29.8,30.56,NE,45,1.0,2.0,96,0.00,,---,0.01,0.00,VWS V14.01,2013-01-17 04:50:00,
2013-01-16 20:55:00,30.9,30.1,30.56,NE,45,0.0,1.0,97,0.00,,---,0.01,0.00,VWS V14.01,2013-01-17 04:55:00,
2013-01-16 21:00:00,30.8,30.0,30.56,NE,45,0.0,1.0,97,0.00,,---,0.01,0.00,VWS V14.01,2013-01-17 05:00:00,
2013-01-16 21:05:00,30.7,30.0,30.56,NE,45,0.0,0.0,97,0.00,,---,0.01,0.00,VWS V14.01,2013-01-17 05:05:00,
2013-01-16 21:10:00,30.6,29.6,30.56,NE,45,0.0,0.0,96,0.00,,---,0.01,0.00,VWS V14.01,2013-01-17 05:10:00,
2013-01-16 21:15:00,30.6,29.9,30.56,NE,45,0.0,0.0,97,0.00,,---,0.01,0.00,VWS V14.01,2013-01-17 05:15:00,
2013-01-16 21:20:00,30.6,29.9,30.55,NE,45,0.0,1.0,97,0.00,,---,0.01,0.00,VWS V14.01,2013-01-17 05:20:00,
2013-01-16 21:25:00,30.6,29.9,30.56,NE,45,0.0,0.0,97,0.00,,---,0.01,0.00,VWS V14.01,2013-01-17 05:25:00,
2013-01-16 21:30:00,31.0,30.2,30.55,NE,45,0.0,0.0,97,0.00,,---,0.01,0.00,VWS V14.01,2013-01-17 05:30:00,
2013-01-16 21:35:00,31.0,30.2,30.55,NE,45,0.0,2.0,97,0.00,,---,0.01,0.00,VWS V14.01,2013-01-17 05:35:00,
2013-01-16 21:40:00,31.0,30.2,30.55,NE,45,0.0,2.0,97,0.00,,---,0.01,0.00,VWS V14.01,2013-01-17 05:40:00,
2013-01-16 21:45:00,30.9,30.1,30.55,NE,45,0.0,1.0,97,0.00,,---,0.01,0.00,VWS V14.01,2013-01-17 05:45:00,
2013-01-16 21:50:00,31.0,30.5,30.55,NE,45,0.0,1.0,98,0.00,,---,0.01,0.00,VWS V14.01,2013-01-17 05:50:00,
2013-01-16 21:55:00,31.1,30.6,30.56,NE,45,0.0,1.0,98,0.00,,---,0.01,0.00,VWS V14.01,2013-01-17 05:55:00,
2013-01-16 22:00:00,30.7,30.2,30.55,NE,45,0.0,0.0,98,0.00,,---,0.01,0.00,VWS V14.01,2013-01-17 06:00:00,
2013-01-16 22:05:00,30.4,29.9,30.55,NE,45,0.0,0.0,98,0.00,,---,0.01,0.00,VWS V14.01,2013-01-17 06:05:00,
2013-01-16 22:10:00,30.0,29.5,30.56,NE,45,0.0,0.0,98,0.00,,---,0.01,0.00,VWS V14.01,2013-01-17 06:10:00,
2013-01-16 22:15:00,30.1,29.6,30.56,NE,45,0.0,1.0,98,0.00,,---,0.01,0.00,VWS V14.01,2013-01-17 06:15:00,
2013-01-16 22:20:00,30.3,29.8,30.55,NE,45,1.0,3.0,98,0.00,,---,0.01,0.00,VWS V14.01,2013-01-17 06:20:00,
2013-01-16 22:25:00,30.4,29.9,30.55,East,90,1.0,2.0,98,0.00,,---,0.01,0.00,VWS V14.01,2013-01-17 06:25:00,
2013-01-16 22:30:00,30.3,29.8,30.55,East,90,0.0,1.0,98,0.00,,---,0.01,0.00,VWS V14.01,2013-01-17 06:30:00,
2013-01-16 22:35:00,30.4,29.9,30.55,East,90,0.0,0.0,98,0.00,,---,0.01,0.00,VWS V14.01,2013-01-17 06:35:00,
2013-01-16 22:40:00,30.3,29.8,30.55,East,90,0.0,1.0,98,0.00,,---,0.01,0.00,VWS V14.01,2013-01-17 06:40:00,
2013-01-16 22:45:00,30.3,29.8,30.55,East,90,0.0,0.0,98,0.00,,---,0.01,0.00,VWS V14.01,2013-01-17 06:45:00,
2013-01-16 22:50:00,29.4,28.9,30.55,East,90,0.0,1.0,98,0.00,,---,0.01,0.00,VWS V14.01,2013-01-17 06:50:00,
2013-01-16 22:55:00,29.4,28.9,30.55,East,90,0.0,0.0,98,0.00,,---,0.01,0.00,VWS V14.01,2013-01-17 06:55:00,
2013-01-16 23:00:00,29.7,29.2,30.55,East,90,0.0,1.0,98,0.00,,---,0.01,0.00,VWS V14.01,2013-01-17 07:00:00,
2013-01-16 23:05:00,29.5,29.0,30.55,East,90,0.0,1.0,98,0.00,,---,0.01,0.00,VWS V14.01,2013-01-17 07:05:00,
2013-01-16 23:10:00,29.3,28.8,30.55,East,90,0.0,1.0,98,0.00,,---,0.01,0.00,VWS V14.01,2013-01-17 07:10:00,
2013-01-16 23:15:00,29.5,29.0,30.55,East,90,0.0,2.0,98,0.00,,---,0.01,0.00,VWS V14.01,2013-01-17 07:15:00,
2013-01-16 23:20:00,29.9,29.4,30.55,East,90,0.0,1.0,98,0.00,,---,0.01,0.00,VWS V14.01,2013-01-17 07:20:00,
2013-01-16 23:25:00,29.9,29.4,30.55,ENE,68,0.0,2.0,98,0.00,,---,0.01,0.00,VWS V14.01,2013-01-17 07:25:00,
2013-01-16 23:30:00,29.8,29.3,30.55,ENE,68,0.0,1.0,98,0.00,,---,0.01,0.00,VWS V14.01,2013-01-17 07:30:00,
2013-01-16 23:35:00,29.9,29.4,30.55,ENE,68,0.0,1.0,98,0.00,,---,0.01,0.00,VWS V14.01,2013-01-17 07:35:00,
2013-01-16 23:40:00,30.1,29.6,30.54,ENE,68,0.0,2.0,98,0.00,,---,0.01,0.00,VWS V14.01,2013-01-17 07:40:00,
2013-01-16 23:45:00,30.1,29.6,30.55,ENE,68,0.0,1.0,98,0.00,,---,0.01,0.00,VWS V14.01,2013-01-17 07:45:00,
2013-01-16 23:50:00,30.1,29.6,30.55,ENE,68,0.0,2.0,98,0.00,,---,0.01,0.00,VWS V14.01,2013-01-17 07:50:00,
2013-01-16 23:55:00,30.1,29.6,30.54,ENE,68,0.0,1.0,98,0.00,,---,0.01,0.00,VWS V14.01,2013-01-17 07:55:00,